createdAt,value
2022-11-20T00:01:21.842Z,-2.43
2022-11-20T00:03:48.892Z,-2.37
2022-11-20T00:06:18.421Z,-2.37
2022-11-20T00:08:45.661Z,-2.52
2022-11-20T00:11:16.373Z,-2.56
2022-11-20T00:13:48.143Z,-2.44
2022-11-20T00:16:17.552Z,-2.34
2022-11-20T00:18:44.915Z,-2.24
2022-11-20T00:21:14.156Z,-2.24
2022-11-20T00:23:40.844Z,-2.25
2022-11-20T00:26:09.253Z,-2.28
2022-11-20T00:28:35.684Z,-2.40
2022-11-20T00:31:10.783Z,-2.66
2022-11-20T00:33:37.290Z,-2.55
2022-11-20T00:36:07.230Z,-2.63
2022-11-20T00:38:34.595Z,-2.71
2022-11-20T00:41:03.857Z,-2.64
2022-11-20T00:43:30.363Z,-2.59
2022-11-20T00:45:58.562Z,-2.58
2022-11-20T00:48:25.448Z,-2.53
2022-11-20T00:50:51.996Z,-2.64
2022-11-20T00:53:18.646Z,-2.78
2022-11-20T00:55:53.977Z,-2.66
2022-11-20T00:58:20.437Z,-2.56
2022-11-20T01:00:46.897Z,-2.51
2022-11-20T01:03:13.423Z,-2.52
2022-11-20T01:05:39.818Z,-2.70
2022-11-20T01:08:06.257Z,-2.71
2022-11-20T01:10:33.719Z,-2.72
2022-11-20T01:13:22.902Z,-2.89
2022-11-20T01:15:52.122Z,-2.95
2022-11-20T01:18:18.575Z,-3.10
2022-11-20T01:20:45.011Z,-3.04
2022-11-20T01:23:12.542Z,-2.82
2022-11-20T01:25:38.939Z,-2.73
2022-11-20T01:28:05.334Z,-2.88
2022-11-20T01:30:31.845Z,-3.13
2022-11-20T01:32:58.228Z,-3.05
2022-11-20T01:35:24.686Z,-3.06
2022-11-20T01:37:51.435Z,-3.25
2022-11-20T01:40:17.980Z,-3.30
2022-11-20T01:43:20.832Z,-3.04
2022-11-20T01:46:05.750Z,-3.10
2022-11-20T01:48:47.319Z,-3.16
2022-11-20T01:51:25.236Z,-3.01
2022-11-20T01:53:55.396Z,-3.03
2022-11-20T01:56:22.530Z,-3.05
2022-11-20T01:58:54.505Z,-3.33
2022-11-20T02:01:21.922Z,-3.27
2022-11-20T02:03:49.461Z,-3.17
2022-11-20T02:06:24.146Z,-3.22
2022-11-20T02:08:51.748Z,-3.08
2022-11-20T02:11:18.305Z,-3.10
2022-11-20T02:13:45.666Z,-3.08
2022-11-20T02:16:26.040Z,-3.20
2022-11-20T02:18:55.711Z,-3.41
2022-11-20T02:22:00.985Z,-3.59
2022-11-20T02:24:27.509Z,-3.42
2022-11-20T02:27:07.269Z,-3.25
2022-11-20T02:29:38.925Z,-3.28
2022-11-20T02:32:05.411Z,-3.19
2022-11-20T02:34:32.685Z,-3.26
2022-11-20T02:37:00.748Z,-3.17
2022-11-20T02:39:29.329Z,-3.25
2022-11-20T02:41:57.076Z,-3.29
2022-11-20T02:44:24.661Z,-3.29
2022-11-20T02:46:51.090Z,-3.24
2022-11-20T02:49:18.017Z,-3.25
2022-11-20T02:51:45.055Z,-3.30
2022-11-20T02:54:11.490Z,-3.26
2022-11-20T02:56:39.589Z,-3.18
2022-11-20T02:59:06.726Z,-3.18
2022-11-20T03:01:33.286Z,-3.37
2022-11-20T03:03:59.786Z,-3.41
2022-11-20T03:06:26.241Z,-3.43
2022-11-20T03:08:52.735Z,-3.44
2022-11-20T03:11:19.166Z,-3.38
2022-11-20T03:13:45.735Z,-3.40
2022-11-20T03:16:15.413Z,-3.40
2022-11-20T03:18:43.110Z,-3.41
2022-11-20T03:21:11.154Z,-3.47
2022-11-20T03:23:38.122Z,-3.53
2022-11-20T03:26:13.169Z,-3.58
2022-11-20T03:28:40.011Z,-3.62
2022-11-20T03:31:09.108Z,-3.66
2022-11-20T03:33:35.578Z,-3.57
2022-11-20T03:36:06.668Z,-3.61
2022-11-20T03:38:33.220Z,-3.67
2022-11-20T03:41:06.718Z,-3.65
2022-11-20T03:43:33.941Z,-3.66
2022-11-20T03:46:01.037Z,-3.66
2022-11-20T03:48:28.346Z,-3.67
2022-11-20T03:51:10.071Z,-3.65
2022-11-20T03:53:36.634Z,-3.68
2022-11-20T03:56:03.644Z,-3.72
2022-11-20T03:58:30.174Z,-3.66
2022-11-20T04:00:56.810Z,-3.60
2022-11-20T04:03:23.308Z,-3.61
2022-11-20T04:05:49.696Z,-3.59
2022-11-20T04:08:16.173Z,-3.65
2022-11-20T04:10:42.556Z,-3.64
2022-11-20T04:13:09.001Z,-3.76
2022-11-20T04:15:38.346Z,-3.68
2022-11-20T04:18:05.228Z,-3.71
2022-11-20T04:20:31.624Z,-3.71
2022-11-20T04:22:58.003Z,-3.71
2022-11-20T04:25:24.396Z,-3.78
2022-11-20T04:27:50.814Z,-3.86
2022-11-20T04:30:17.342Z,-3.83
2022-11-20T04:32:43.806Z,-3.85
2022-11-20T04:35:10.185Z,-3.85
2022-11-20T04:37:36.615Z,-3.85
2022-11-20T04:40:03.114Z,-3.90
2022-11-20T04:42:29.584Z,-3.83
2022-11-20T04:44:56.202Z,-3.82
2022-11-20T04:47:23.336Z,-3.83
2022-11-20T04:49:49.776Z,-3.76
2022-11-20T04:52:16.200Z,-3.85
2022-11-20T04:54:42.595Z,-3.91
2022-11-20T04:57:14.094Z,-3.88
2022-11-20T04:59:41.057Z,-3.86
2022-11-20T05:02:07.727Z,-3.85
2022-11-20T05:04:34.183Z,-3.88
2022-11-20T05:07:00.584Z,-3.91
2022-11-20T05:09:27.140Z,-3.92
2022-11-20T05:11:53.517Z,-4.01
2022-11-20T05:14:19.924Z,-3.95
2022-11-20T05:16:46.674Z,-3.93
2022-11-20T05:19:13.169Z,-3.89
2022-11-20T05:21:39.585Z,-3.94
2022-11-20T05:24:06.808Z,-3.84
2022-11-20T05:26:33.629Z,-3.70
2022-11-20T05:29:00.060Z,-3.62
2022-11-20T05:31:28.361Z,-3.60
2022-11-20T05:33:56.218Z,-3.54
2022-11-20T05:36:22.811Z,-3.52
2022-11-20T05:38:51.089Z,-3.63
2022-11-20T05:41:20.105Z,-3.71
2022-11-20T05:43:47.977Z,-3.66
2022-11-20T05:46:16.774Z,-3.67
2022-11-20T05:48:44.616Z,-3.71
2022-11-20T05:51:13.337Z,-3.68
2022-11-20T05:53:43.736Z,-3.69
2022-11-20T05:56:16.082Z,-3.63
2022-11-20T05:58:42.825Z,-3.66
2022-11-20T06:01:19.544Z,-3.59
2022-11-20T06:03:48.473Z,-3.57
2022-11-20T06:06:16.153Z,-3.54
2022-11-20T06:08:42.700Z,-3.51
2022-11-20T06:11:11.389Z,-3.53
2022-11-20T06:13:42.063Z,-3.50
2022-11-20T06:16:09.981Z,-3.48
2022-11-20T06:18:36.647Z,-3.52
2022-11-20T06:21:09.082Z,-3.51
2022-11-20T06:23:36.840Z,-3.54
2022-11-20T06:26:15.332Z,-3.56
2022-11-20T06:28:42.565Z,-3.48
2022-11-20T06:31:12.762Z,-3.56
2022-11-20T06:33:39.128Z,-3.57
2022-11-20T06:36:10.373Z,-3.62
2022-11-20T06:38:38.942Z,-3.62
2022-11-20T06:41:07.047Z,-3.63
2022-11-20T06:43:33.427Z,-3.62
2022-11-20T06:46:00.542Z,-3.67
2022-11-20T06:48:28.680Z,-3.62
2022-11-20T06:50:55.107Z,-3.66
2022-11-20T06:53:22.400Z,-3.65
2022-11-20T06:55:49.812Z,-3.71
2022-11-20T06:58:16.693Z,-3.72
2022-11-20T07:00:43.541Z,-3.74
2022-11-20T07:03:11.722Z,-3.77
2022-11-20T07:05:39.409Z,-3.78
2022-11-20T07:08:06.047Z,-3.64
2022-11-20T07:10:33.344Z,-3.62
2022-11-20T07:13:00.414Z,-3.58
2022-11-20T07:15:26.869Z,-3.55
2022-11-20T07:17:53.689Z,-3.48
2022-11-20T07:20:20.200Z,-3.55
2022-11-20T07:22:46.603Z,-3.47
2022-11-20T07:25:13.097Z,-3.49
2022-11-20T07:27:39.479Z,-3.47
2022-11-20T07:30:06.473Z,-3.36
2022-11-20T07:32:32.889Z,-3.38
2022-11-20T07:34:59.816Z,-3.41
2022-11-20T07:37:26.285Z,-3.42
2022-11-20T07:39:52.695Z,-3.41
2022-11-20T07:42:19.097Z,-3.34
2022-11-20T07:44:45.482Z,-3.32
2022-11-20T07:47:11.903Z,-3.30
2022-11-20T07:49:38.396Z,-3.24
2022-11-20T07:52:05.499Z,-3.17
2022-11-20T07:54:31.943Z,-3.11
2022-11-20T07:56:58.358Z,-3.06
2022-11-20T07:59:24.711Z,-3.02
2022-11-20T08:01:51.356Z,-2.99
2022-11-20T08:04:17.864Z,-2.99
2022-11-20T08:06:44.320Z,-2.96
2022-11-20T08:09:10.708Z,-2.94
2022-11-20T08:11:55.614Z,-2.93
2022-11-20T08:14:22.157Z,-2.88
2022-11-20T08:16:50.165Z,-2.82
2022-11-20T08:19:18.619Z,-2.78
2022-11-20T08:21:45.693Z,-2.74
2022-11-20T08:24:13.080Z,-2.72
2022-11-20T08:26:40.390Z,-2.68
2022-11-20T08:29:07.366Z,-2.68
2022-11-20T08:31:34.390Z,-2.64
2022-11-20T08:34:02.209Z,-2.61
2022-11-20T08:36:34.897Z,-2.56
2022-11-20T08:39:01.748Z,-2.48
2022-11-20T08:41:28.139Z,-2.44
2022-11-20T08:44:02.950Z,-2.37
2022-11-20T08:46:34.832Z,-2.37
2022-11-20T08:49:01.369Z,-2.40
2022-11-20T08:51:27.864Z,-2.38
2022-11-20T08:53:54.248Z,-2.36
2022-11-20T08:56:20.745Z,-2.31
2022-11-20T08:59:18.022Z,-2.24
2022-11-20T09:01:33.832Z,-2.22
2022-11-20T09:04:00.855Z,-2.19
2022-11-20T09:06:27.334Z,-2.17
2022-11-20T09:08:54.578Z,-2.15
2022-11-20T09:11:22.903Z,-2.12
2022-11-20T09:13:49.911Z,-2.11
2022-11-20T09:16:16.372Z,-2.08
2022-11-20T09:18:42.813Z,-2.04
2022-11-20T09:21:14.914Z,-1.99
2022-11-20T09:23:41.773Z,-2.00
2022-11-20T09:26:12.960Z,-1.95
2022-11-20T09:28:39.777Z,-1.89
2022-11-20T09:31:07.916Z,-1.82
2022-11-20T09:33:34.582Z,-1.83
2022-11-20T09:36:01.076Z,-1.77
2022-11-20T09:38:27.625Z,-1.70
2022-11-20T09:40:59.622Z,-1.62
2022-11-20T09:43:35.214Z,-1.56
2022-11-20T09:46:18.084Z,-1.44
2022-11-20T09:49:25.225Z,-1.38
2022-11-20T09:51:59.650Z,-1.34
2022-11-20T09:54:32.828Z,-1.28
2022-11-20T09:57:02.239Z,-1.24
2022-11-20T09:59:56.803Z,-1.23
2022-11-20T10:02:47.677Z,-1.26
2022-11-20T10:05:30.977Z,-1.25
2022-11-20T10:08:15.110Z,-1.22
2022-11-20T10:10:50.808Z,-1.23
2022-11-20T10:13:54.709Z,-1.14
2022-11-20T10:16:41.512Z,-1.13
2022-11-20T10:19:23.407Z,-1.10
2022-11-20T10:21:55.980Z,-1.12
2022-11-20T10:24:38.693Z,-1.08
2022-11-20T10:27:41.250Z,-1.06
2022-11-20T10:30:14.249Z,-1.01
2022-11-20T10:32:44.150Z,-0.98
2022-11-20T10:35:25.395Z,-0.87
2022-11-20T10:37:57.531Z,-0.83
2022-11-20T10:40:39.154Z,-0.79
2022-11-20T10:43:15.128Z,-0.71
2022-11-20T10:45:57.101Z,-0.63
2022-11-20T10:48:26.366Z,-0.62
2022-11-20T10:51:18.984Z,-0.59
2022-11-20T10:54:02.141Z,-0.54
2022-11-20T10:56:51.316Z,-0.47
2022-11-20T10:59:47.936Z,-0.46
2022-11-20T11:02:18.167Z,-0.48
2022-11-20T11:04:47.542Z,-0.44
2022-11-20T11:07:36.746Z,-0.45
2022-11-20T11:10:17.515Z,-0.62
2022-11-20T11:12:49.257Z,-0.51
2022-11-20T11:15:27.721Z,-0.58
2022-11-20T11:17:54.787Z,-0.58
2022-11-20T11:20:26.430Z,-0.56
2022-11-20T11:22:56.025Z,-0.55
2022-11-20T11:25:29.094Z,-0.47
2022-11-20T11:28:02.960Z,-0.42
2022-11-20T11:30:31.942Z,-0.44
2022-11-20T11:33:11.117Z,-0.40
2022-11-20T11:35:49.959Z,-0.33
2022-11-20T11:38:22.956Z,-0.38
2022-11-20T11:40:49.381Z,-0.29
2022-11-20T11:43:44.354Z,-0.29
2022-11-20T11:46:32.166Z,-0.19
2022-11-20T11:49:10.852Z,-0.14
2022-11-20T11:51:48.895Z,-0.12
2022-11-20T11:54:21.714Z,-0.12
2022-11-20T11:56:48.229Z,-0.05
2022-11-20T11:59:26.244Z,0.00
2022-11-20T12:02:00.588Z,0.05
2022-11-20T12:04:56.013Z,0.10
2022-11-20T12:07:47.250Z,0.14
2022-11-20T12:10:36.857Z,0.19
2022-11-20T12:13:16.420Z,0.19
2022-11-20T12:15:47.212Z,0.19
2022-11-20T12:18:18.738Z,0.15
2022-11-20T12:20:58.800Z,0.06
2022-11-20T12:23:52.479Z,0.11
2022-11-20T12:26:43.679Z,0.13
2022-11-20T12:29:39.236Z,0.16
2022-11-20T12:32:14.491Z,0.18
2022-11-20T12:34:49.375Z,0.17
2022-11-20T12:37:56.770Z,0.18
2022-11-20T12:40:53.296Z,0.03
2022-11-20T12:43:54.721Z,0.18
2022-11-20T12:46:47.877Z,0.11
2022-11-20T12:49:26.180Z,0.20
2022-11-20T12:52:03.598Z,0.25
2022-11-20T12:54:49.752Z,0.33
2022-11-20T12:57:55.237Z,0.34
2022-11-20T13:00:23.694Z,0.32
2022-11-20T13:03:01.111Z,0.41
2022-11-20T13:05:37.956Z,0.42
2022-11-20T13:08:08.282Z,0.34
2022-11-20T13:10:50.731Z,0.37
2022-11-20T13:13:24.528Z,0.44
2022-11-20T13:16:09.143Z,0.44
2022-11-20T13:18:40.452Z,0.42
2022-11-20T13:21:21.018Z,0.43
2022-11-20T13:23:47.675Z,0.44
2022-11-20T13:26:23.750Z,0.47
2022-11-20T13:29:19.173Z,0.45
2022-11-20T13:31:48.024Z,0.31
2022-11-20T13:34:28.151Z,0.43
2022-11-20T13:36:56.994Z,0.44
2022-11-20T13:39:27.341Z,0.47
2022-11-20T13:42:21.082Z,0.41
2022-11-20T13:44:56.287Z,0.41
2022-11-20T13:47:27.924Z,0.41
2022-11-20T13:49:56.568Z,0.38
2022-11-20T13:52:50.856Z,0.41
2022-11-20T13:55:39.118Z,0.40
2022-11-20T13:58:11.674Z,0.44
2022-11-20T14:01:05.088Z,0.41
2022-11-20T14:06:28.162Z,0.47
2022-11-20T14:08:54.841Z,0.46
2022-11-20T14:11:26.760Z,0.44
2022-11-20T14:14:06.502Z,0.51
2022-11-20T14:16:36.989Z,0.50
2022-11-20T14:19:23.299Z,0.52
2022-11-20T14:21:52.922Z,0.51
2022-11-20T14:24:21.879Z,0.55
2022-11-20T14:26:49.355Z,0.56
2022-11-20T14:29:18.230Z,0.55
2022-11-20T14:31:51.176Z,0.55
2022-11-20T14:34:32.743Z,0.60
2022-11-20T14:37:06.357Z,0.63
2022-11-20T14:39:37.767Z,0.62
2022-11-20T14:42:16.026Z,0.68
2022-11-20T14:44:43.684Z,0.67
2022-11-20T14:47:13.770Z,0.70
2022-11-20T14:49:41.672Z,0.69
2022-11-20T14:52:15.540Z,0.71
2022-11-20T14:54:55.558Z,0.74
2022-11-20T14:57:33.184Z,0.68
2022-11-20T15:00:08.588Z,0.71
2022-11-20T15:02:35.214Z,0.72
2022-11-20T15:05:06.132Z,0.75
2022-11-20T15:07:38.115Z,0.72
2022-11-20T15:10:08.555Z,0.77
2022-11-20T15:12:38.283Z,0.75
2022-11-20T15:15:06.597Z,0.76
2022-11-20T15:17:38.389Z,0.78
2022-11-20T15:20:12.694Z,0.78
2022-11-20T15:22:39.094Z,0.80
2022-11-20T15:25:15.965Z,0.78
2022-11-20T15:27:43.366Z,0.86
2022-11-20T15:30:16.031Z,0.83
2022-11-20T15:32:43.107Z,0.79
2022-11-20T15:35:10.701Z,0.79
2022-11-20T15:37:40.310Z,0.81
2022-11-20T15:40:07.799Z,0.84
2022-11-20T15:42:35.400Z,0.82
2022-11-20T15:45:02.225Z,0.83
2022-11-20T15:47:32.169Z,0.82
2022-11-20T15:49:58.743Z,0.82
2022-11-20T15:52:25.141Z,0.83
2022-11-20T15:54:51.685Z,0.90
2022-11-20T15:57:18.213Z,0.84
2022-11-20T15:59:44.789Z,0.89
2022-11-20T16:02:19.182Z,0.92
2022-11-20T16:04:46.097Z,0.92
2022-11-20T16:07:12.608Z,0.96
2022-11-20T16:09:40.206Z,1.01
2022-11-20T16:12:07.020Z,1.01
2022-11-20T16:14:51.883Z,1.02
2022-11-20T16:17:38.254Z,1.03
2022-11-20T16:20:05.056Z,1.01
2022-11-20T16:22:31.455Z,1.08
2022-11-20T16:24:57.900Z,1.13
2022-11-20T16:27:24.283Z,1.12
2022-11-20T16:29:50.736Z,1.11
2022-11-20T16:32:17.105Z,1.12
2022-11-20T16:34:43.467Z,1.18
2022-11-20T16:37:09.859Z,1.18
2022-11-20T16:39:36.362Z,1.15
2022-11-20T16:42:05.590Z,1.21
2022-11-20T16:44:32.025Z,1.22
2022-11-20T16:46:58.411Z,1.14
2022-11-20T16:49:24.913Z,1.28
2022-11-20T16:51:51.823Z,1.28
2022-11-20T16:54:21.044Z,1.26
2022-11-20T16:56:48.323Z,1.30
2022-11-20T16:59:15.913Z,1.28
2022-11-20T17:01:43.916Z,1.27
2022-11-20T17:04:10.457Z,1.27
2022-11-20T17:06:40.793Z,1.26
2022-11-20T17:09:09.638Z,1.23
2022-11-20T17:11:37.220Z,1.24
2022-11-20T17:14:04.043Z,1.27
2022-11-20T17:16:31.582Z,1.25
2022-11-20T17:19:03.013Z,1.27
2022-11-20T17:21:30.695Z,1.27
2022-11-20T17:24:01.133Z,1.28
2022-11-20T17:26:28.746Z,1.32
2022-11-20T17:28:56.743Z,1.36
2022-11-20T17:31:23.754Z,1.32
2022-11-20T17:33:50.316Z,1.36
2022-11-20T17:36:18.275Z,1.38
2022-11-20T17:38:45.529Z,1.38
2022-11-20T17:41:14.536Z,1.38
2022-11-20T17:43:42.857Z,1.42
2022-11-20T17:46:11.689Z,1.42
2022-11-20T17:48:42.310Z,1.43
2022-11-20T17:51:13.694Z,1.41
2022-11-20T17:53:42.936Z,1.43
2022-11-20T17:56:28.464Z,1.39
2022-11-20T17:58:56.354Z,1.45
2022-11-20T18:01:23.916Z,1.47
2022-11-20T18:03:50.617Z,1.48
2022-11-20T18:06:19.705Z,1.48
2022-11-20T18:08:47.246Z,1.49
2022-11-20T18:11:15.087Z,1.51
2022-11-20T18:14:01.626Z,1.51
2022-11-20T18:16:30.438Z,1.49
2022-11-20T18:18:58.256Z,1.53
2022-11-20T18:21:26.571Z,1.58
2022-11-20T18:23:53.043Z,1.58
2022-11-20T18:26:19.665Z,1.52
2022-11-20T18:28:46.169Z,1.53
2022-11-20T18:31:13.222Z,1.59
2022-11-20T18:33:40.022Z,1.61
2022-11-20T18:36:18.412Z,1.55
2022-11-20T18:38:48.346Z,1.57
2022-11-20T18:41:34.894Z,1.58
2022-11-20T18:44:21.061Z,1.62
2022-11-20T18:46:47.914Z,1.67
2022-11-20T18:49:17.885Z,1.69
2022-11-20T18:51:44.454Z,1.68
2022-11-20T18:54:12.268Z,1.71
2022-11-20T18:56:39.387Z,1.70
2022-11-20T18:59:07.925Z,1.69
2022-11-20T19:01:34.842Z,1.60
2022-11-20T19:04:01.357Z,1.58
2022-11-20T19:06:27.780Z,1.61
2022-11-20T19:08:54.659Z,1.44
2022-11-20T19:11:21.112Z,1.33
2022-11-20T19:13:47.669Z,1.52
2022-11-20T19:16:19.490Z,1.61
2022-11-20T19:18:48.392Z,1.62
2022-11-20T19:21:18.497Z,1.62
2022-11-20T19:23:51.602Z,1.63
2022-11-20T19:26:18.875Z,1.66
2022-11-20T19:28:45.925Z,1.65
2022-11-20T19:31:18.116Z,1.63
2022-11-20T19:33:47.319Z,1.64
2022-11-20T19:36:19.162Z,1.66
2022-11-20T19:38:48.184Z,1.67
2022-11-20T19:41:16.302Z,1.69
2022-11-20T19:43:42.763Z,1.69
2022-11-20T19:46:09.220Z,1.68
2022-11-20T19:48:37.527Z,1.66
2022-11-20T19:51:15.502Z,1.66
2022-11-20T19:53:42.296Z,1.66
2022-11-20T19:56:09.372Z,1.64
2022-11-20T19:58:36.346Z,1.63
2022-11-20T20:01:17.801Z,1.65
2022-11-20T20:03:46.159Z,1.70
2022-11-20T20:06:20.703Z,1.72
2022-11-20T20:08:53.580Z,1.65
2022-11-20T20:11:21.910Z,1.71
2022-11-20T20:13:48.318Z,1.72
2022-11-20T20:16:20.029Z,1.75
2022-11-20T20:18:46.466Z,1.65
2022-11-20T20:21:14.913Z,1.65
2022-11-20T20:23:42.233Z,1.60
2022-11-20T20:26:10.653Z,1.63
2022-11-20T20:28:37.735Z,1.59
2022-11-20T20:31:10.066Z,1.65
2022-11-20T20:33:38.907Z,1.65
2022-11-20T20:36:06.914Z,1.67
2022-11-20T20:38:33.944Z,1.67
2022-11-20T20:41:00.731Z,1.66
2022-11-20T20:43:27.659Z,1.63
2022-11-20T20:45:55.145Z,1.60
2022-11-20T20:48:24.176Z,1.60
2022-11-20T20:51:02.557Z,1.59
2022-11-20T20:53:36.559Z,1.58
2022-11-20T20:56:03.740Z,1.58
2022-11-20T20:58:30.683Z,1.61
2022-11-20T21:01:25.688Z,1.61
2022-11-20T21:03:52.167Z,1.58
2022-11-20T21:06:18.620Z,1.61
2022-11-20T21:08:45.924Z,1.61
2022-11-20T21:11:15.512Z,1.63
2022-11-20T21:13:43.179Z,1.63
2022-11-20T21:16:11.180Z,1.63
2022-11-20T21:18:37.864Z,1.63
2022-11-20T21:21:25.250Z,1.62
2022-11-20T21:23:53.411Z,1.62
2022-11-20T21:26:20.419Z,1.63
2022-11-20T21:28:47.011Z,1.62
2022-11-20T21:31:19.516Z,1.66
2022-11-20T21:33:47.694Z,1.70
2022-11-20T21:36:27.573Z,1.66
2022-11-20T21:38:55.318Z,1.71
2022-11-20T21:41:23.240Z,1.71
2022-11-20T21:44:15.885Z,1.72
2022-11-20T21:46:40.786Z,1.70
2022-11-20T21:49:07.708Z,1.67
2022-11-20T21:51:34.519Z,1.63
2022-11-20T21:54:00.977Z,1.63
2022-11-20T21:56:27.575Z,1.62
2022-11-20T21:58:54.758Z,1.62
2022-11-20T22:01:28.811Z,1.62
2022-11-20T22:04:01.768Z,1.60
2022-11-20T22:06:33.032Z,1.60
2022-11-20T22:08:59.926Z,1.54
2022-11-20T22:11:26.535Z,1.51
2022-11-20T22:14:11.405Z,1.47
2022-11-20T22:16:38.397Z,1.44
2022-11-20T22:19:06.084Z,1.45
2022-11-20T22:21:33.655Z,1.43
2022-11-20T22:24:00.119Z,1.43
2022-11-20T22:26:34.960Z,1.44
2022-11-20T22:29:03.983Z,1.42
2022-11-20T22:31:31.532Z,1.46
2022-11-20T22:34:00.960Z,1.49
2022-11-20T22:36:29.196Z,1.48
2022-11-20T22:38:56.048Z,1.47
2022-11-20T22:41:27.605Z,1.47
2022-11-20T22:43:59.124Z,1.50
2022-11-20T22:46:27.561Z,1.50
2022-11-20T22:48:56.585Z,1.51
2022-11-20T22:51:25.351Z,1.53
2022-11-20T22:53:52.389Z,1.52
2022-11-20T22:56:19.279Z,1.51
2022-11-20T22:58:47.776Z,1.52
2022-11-20T23:01:19.755Z,1.53
2022-11-20T23:03:48.921Z,1.51
2022-11-20T23:06:16.485Z,1.49
2022-11-20T23:08:43.305Z,1.54
2022-11-20T23:11:12.168Z,1.57
2022-11-20T23:13:39.183Z,1.56
2022-11-20T23:16:10.304Z,1.56
2022-11-20T23:18:37.402Z,1.58
2022-11-20T23:21:05.695Z,1.61
2022-11-20T23:23:32.312Z,1.63
2022-11-20T23:26:10.713Z,1.63
2022-11-20T23:28:37.719Z,1.64
2022-11-20T23:31:04.732Z,1.63
2022-11-20T23:33:31.355Z,1.62
2022-11-20T23:35:57.790Z,1.63
2022-11-20T23:38:24.261Z,1.63
2022-11-20T23:40:51.631Z,1.62
2022-11-20T23:43:20.295Z,1.61
2022-11-20T23:45:52.126Z,1.59
2022-11-20T23:48:20.396Z,1.53
2022-11-20T23:50:46.949Z,1.51
2022-11-20T23:53:14.490Z,1.50
2022-11-20T23:55:49.486Z,1.45
2022-11-20T23:58:16.823Z,1.50
